createdAt,value
2018-08-13T00:02:11.189Z,20.90
2018-08-13T00:04:39.321Z,20.90
2018-08-13T00:07:07.440Z,20.90
2018-08-13T00:09:41.974Z,20.90
2018-08-13T00:12:11.005Z,20.80
2018-08-13T00:17:13.698Z,20.90
2018-08-13T00:19:41.816Z,20.90
2018-08-13T00:22:10.033Z,20.90
2018-08-13T00:24:38.136Z,20.90
2018-08-13T00:27:06.293Z,20.80
2018-08-13T00:29:34.479Z,20.90
2018-08-13T00:32:02.639Z,20.80
2018-08-13T00:34:31.292Z,20.80
2018-08-13T00:37:00.103Z,20.80
2018-08-13T00:39:28.818Z,20.80
2018-08-13T00:41:57.917Z,20.80
2018-08-13T00:44:26.108Z,20.80
2018-08-13T00:46:54.381Z,20.80
2018-08-13T00:49:22.630Z,20.80
2018-08-13T00:51:50.851Z,20.80
2018-08-13T00:54:18.960Z,20.80
2018-08-13T00:56:47.066Z,20.80
2018-08-13T00:59:15.222Z,20.80
2018-08-13T01:01:43.307Z,20.80
2018-08-13T01:04:11.473Z,20.80
2018-08-13T01:06:39.584Z,20.80
2018-08-13T01:09:08.284Z,20.70
2018-08-13T01:11:36.757Z,20.70
2018-08-13T01:14:04.939Z,20.70
2018-08-13T01:16:33.060Z,20.70
2018-08-13T01:19:01.252Z,20.70
2018-08-13T01:21:29.531Z,20.70
2018-08-13T01:23:57.933Z,20.70
2018-08-13T01:26:26.378Z,20.70
2018-08-13T01:28:54.559Z,20.60
2018-08-13T01:31:22.710Z,20.60
2018-08-13T01:33:50.848Z,20.60
2018-08-13T01:36:18.965Z,20.60
2018-08-13T01:38:47.098Z,20.60
2018-08-13T01:41:15.209Z,20.60
2018-08-13T01:43:44.140Z,20.60
2018-08-13T01:46:12.303Z,20.60
2018-08-13T01:48:40.412Z,20.60
2018-08-13T01:51:08.511Z,20.60
2018-08-13T01:53:36.614Z,20.60
2018-08-13T01:56:04.764Z,20.60
2018-08-13T01:58:33.120Z,20.60
2018-08-13T02:01:01.349Z,20.60
2018-08-13T02:03:30.397Z,20.50
2018-08-13T02:05:59.254Z,20.50
2018-08-13T02:08:27.508Z,20.50
2018-08-13T02:10:55.728Z,20.50
2018-08-13T02:13:23.876Z,20.50
2018-08-13T02:15:52.123Z,20.50
2018-08-13T02:18:20.401Z,20.40
2018-08-13T02:20:48.603Z,20.50
2018-08-13T02:23:16.880Z,20.50
2018-08-13T02:25:45.387Z,20.50
2018-08-13T02:28:13.922Z,20.50
2018-08-13T02:30:42.083Z,20.50
2018-08-13T02:33:10.511Z,20.40
2018-08-13T02:35:38.652Z,20.50
2018-08-13T02:38:07.237Z,20.50
2018-08-13T02:40:35.545Z,20.50
2018-08-13T02:43:04.088Z,20.50
2018-08-13T02:45:32.314Z,20.50
2018-08-13T02:48:00.842Z,20.50
2018-08-13T02:50:29.516Z,20.50
2018-08-13T02:52:58.737Z,20.50
2018-08-13T02:55:27.041Z,20.50
2018-08-13T02:57:55.395Z,20.50
2018-08-13T03:00:23.529Z,20.50
2018-08-13T03:02:51.653Z,20.40
2018-08-13T03:05:19.743Z,20.40
2018-08-13T03:07:48.000Z,20.40
2018-08-13T03:10:16.093Z,20.40
2018-08-13T03:12:44.724Z,20.40
2018-08-13T03:15:14.440Z,20.40
2018-08-13T03:17:42.556Z,20.40
2018-08-13T03:20:10.727Z,20.40
2018-08-13T03:22:38.864Z,20.40
2018-08-13T03:25:08.707Z,20.40
2018-08-13T03:27:36.801Z,20.40
2018-08-13T03:30:09.382Z,20.40
2018-08-13T03:32:37.853Z,20.30
2018-08-13T03:35:06.011Z,20.30
2018-08-13T03:37:34.236Z,20.30
2018-08-13T03:40:02.445Z,20.30
2018-08-13T03:42:30.721Z,20.30
2018-08-13T03:44:59.013Z,20.30
2018-08-13T03:47:27.168Z,20.20
2018-08-13T03:49:55.260Z,20.30
2018-08-13T03:52:23.376Z,20.20
2018-08-13T03:54:51.499Z,20.30
2018-08-13T03:57:19.590Z,20.30
2018-08-13T03:59:47.705Z,20.30
2018-08-13T04:02:15.797Z,20.30
2018-08-13T04:04:43.896Z,20.30
2018-08-13T04:07:12.284Z,20.30
2018-08-13T04:09:43.130Z,20.20
2018-08-13T04:12:11.240Z,20.30
2018-08-13T04:14:39.460Z,20.30
2018-08-13T04:17:07.584Z,20.30
2018-08-13T04:19:35.664Z,20.30
2018-08-13T04:22:03.851Z,20.30
2018-08-13T04:24:32.017Z,20.30
2018-08-13T04:27:00.578Z,20.30
2018-08-13T04:29:28.759Z,20.40
2018-08-13T04:31:57.353Z,20.40
2018-08-13T04:34:25.523Z,20.30
2018-08-13T04:36:53.600Z,20.40
2018-08-13T04:39:21.732Z,20.30
2018-08-13T04:41:49.892Z,20.30
2018-08-13T04:44:18.001Z,20.30
2018-08-13T04:46:46.108Z,20.30
2018-08-13T04:49:14.256Z,20.30
2018-08-13T04:51:42.368Z,20.30
2018-08-13T04:54:10.493Z,20.40
2018-08-13T04:56:38.621Z,20.30
2018-08-13T04:59:06.761Z,20.30
2018-08-13T05:01:35.052Z,20.40
2018-08-13T05:04:03.213Z,20.40
2018-08-13T05:06:31.413Z,20.40
2018-08-13T05:08:59.585Z,20.40
2018-08-13T05:11:27.782Z,20.40
2018-08-13T05:13:56.104Z,20.40
2018-08-13T05:16:24.212Z,20.40
2018-08-13T05:18:52.373Z,20.40
2018-08-13T05:21:20.567Z,20.40
2018-08-13T05:23:48.617Z,20.40
2018-08-13T05:26:16.755Z,20.40
2018-08-13T05:28:44.868Z,20.40
2018-08-13T05:31:12.968Z,20.40
2018-08-13T05:33:41.078Z,20.40
2018-08-13T05:36:09.179Z,20.40
2018-08-13T05:38:37.271Z,20.40
2018-08-13T05:41:05.394Z,20.50
2018-08-13T05:43:33.520Z,20.50
2018-08-13T05:46:01.693Z,20.50
2018-08-13T05:48:29.849Z,20.50
2018-08-13T05:50:58.057Z,20.40
2018-08-13T05:53:26.213Z,20.50
2018-08-13T05:55:54.387Z,20.40
2018-08-13T05:58:22.540Z,20.50
2018-08-13T06:00:50.781Z,20.50
2018-08-13T06:03:18.868Z,20.40
2018-08-13T06:05:46.977Z,20.40
2018-08-13T06:08:15.060Z,20.50
2018-08-13T06:10:43.192Z,20.50
2018-08-13T06:13:11.297Z,20.50
2018-08-13T06:15:39.485Z,20.50
2018-08-13T06:18:07.640Z,20.50
2018-08-13T06:20:35.768Z,20.50
2018-08-13T06:23:03.887Z,20.60
2018-08-13T06:25:32.084Z,20.60
2018-08-13T06:28:00.248Z,20.50
2018-08-13T06:30:28.472Z,20.60
2018-08-13T06:32:56.692Z,20.60
2018-08-13T06:35:24.851Z,20.70
2018-08-13T06:37:52.995Z,20.80
2018-08-13T06:40:21.138Z,20.80
2018-08-13T06:42:49.236Z,20.80
2018-08-13T06:45:17.332Z,20.80
2018-08-13T06:47:45.442Z,20.80
2018-08-13T06:50:14.272Z,20.80
2018-08-13T06:52:42.668Z,20.80
2018-08-13T06:55:10.768Z,20.80
2018-08-13T06:57:38.925Z,20.80
2018-08-13T07:00:09.296Z,20.70
2018-08-13T07:02:37.436Z,20.80
2018-08-13T07:05:06.857Z,20.80
2018-08-13T07:07:35.137Z,20.80
2018-08-13T07:10:03.299Z,20.80
2018-08-13T07:12:31.464Z,20.90
2018-08-13T07:14:59.741Z,21.00
2018-08-13T07:17:27.992Z,21.00
2018-08-13T07:19:56.140Z,20.90
2018-08-13T07:22:24.361Z,21.00
2018-08-13T07:24:52.425Z,21.00
2018-08-13T07:27:20.560Z,21.10
2018-08-13T07:29:48.688Z,21.10
2018-08-13T07:32:16.754Z,21.10
2018-08-13T07:34:44.862Z,21.10
2018-08-13T07:37:12.992Z,21.10
2018-08-13T07:39:41.149Z,21.20
2018-08-13T07:42:09.249Z,21.20
2018-08-13T07:44:37.369Z,21.20
2018-08-13T07:47:05.492Z,21.20
2018-08-13T07:49:33.648Z,21.20
2018-08-13T07:52:01.850Z,21.30
2018-08-13T07:54:30.038Z,21.40
2018-08-13T07:56:58.272Z,21.50
2018-08-13T07:59:26.432Z,21.50
2018-08-13T08:01:54.637Z,21.50
2018-08-13T08:04:22.746Z,21.50
2018-08-13T08:06:50.884Z,21.60
2018-08-13T08:09:19.114Z,21.60
2018-08-13T08:11:47.136Z,21.70
2018-08-13T08:14:15.263Z,21.70
2018-08-13T08:16:43.347Z,21.70
2018-08-13T08:19:11.443Z,21.70
2018-08-13T08:21:39.529Z,21.70
2018-08-13T08:24:07.708Z,21.80
2018-08-13T08:26:35.822Z,21.80
2018-08-13T08:29:04.956Z,21.80
2018-08-13T08:31:33.090Z,21.80
2018-08-13T08:34:01.333Z,21.80
2018-08-13T08:36:29.900Z,21.80
2018-08-13T08:38:58.190Z,21.80
2018-08-13T08:41:26.345Z,21.80
2018-08-13T08:43:54.479Z,21.90
2018-08-13T08:46:22.652Z,21.90
2018-08-13T08:48:50.763Z,21.90
2018-08-13T08:51:18.871Z,22.10
2018-08-13T08:53:46.984Z,22.20
2018-08-13T08:56:15.136Z,22.10
2018-08-13T08:58:43.244Z,22.20
2018-08-13T09:01:11.342Z,22.20
2018-08-13T09:03:39.451Z,22.00
2018-08-13T09:06:07.560Z,22.20
2018-08-13T09:08:35.695Z,22.30
2018-08-13T09:11:03.785Z,22.30
2018-08-13T09:13:31.945Z,22.30
2018-08-13T09:16:00.154Z,22.30
2018-08-13T09:19:42.241Z,22.40
2018-08-13T09:22:21.888Z,22.30
2018-08-13T09:25:01.565Z,22.50
2018-08-13T09:27:41.076Z,22.40
2018-08-13T09:30:20.709Z,22.40
2018-08-13T09:33:59.152Z,22.30
2018-08-13T09:36:27.345Z,22.40
2018-08-13T09:38:55.505Z,22.40
2018-08-13T09:41:23.625Z,22.90
2018-08-13T09:43:51.980Z,22.60
2018-08-13T09:46:20.105Z,22.40
2018-08-13T09:48:48.199Z,22.20
2018-08-13T09:51:16.294Z,22.30
2018-08-13T09:53:44.395Z,22.30
2018-08-13T09:56:12.477Z,22.60
2018-08-13T09:58:40.666Z,22.80
2018-08-13T10:01:09.783Z,22.80
2018-08-13T10:03:38.091Z,22.90
2018-08-13T10:06:06.298Z,22.60
2018-08-13T10:08:34.441Z,22.80
2018-08-13T10:11:02.630Z,23.00
2018-08-13T10:13:31.030Z,23.30
2018-08-13T10:15:59.285Z,23.40
2018-08-13T10:18:27.481Z,22.80
2018-08-13T10:20:55.572Z,22.50
2018-08-13T10:23:23.679Z,22.40
2018-08-13T10:25:51.780Z,22.30
2018-08-13T10:28:19.921Z,22.40
2018-08-13T10:30:48.097Z,22.30
2018-08-13T10:33:16.200Z,22.60
2018-08-13T10:35:44.305Z,22.50
2018-08-13T10:38:12.400Z,22.70
2018-08-13T10:40:40.500Z,22.70
2018-08-13T10:43:08.655Z,23.00
2018-08-13T10:45:36.785Z,23.40
2018-08-13T10:48:04.992Z,23.20
2018-08-13T10:50:33.123Z,23.30
2018-08-13T10:53:01.350Z,23.60
2018-08-13T10:55:29.488Z,23.20
2018-08-13T10:57:57.699Z,24.00
2018-08-13T11:00:25.844Z,23.90
2018-08-13T11:02:54.005Z,24.20
2018-08-13T11:05:22.090Z,24.10
2018-08-13T11:07:50.197Z,24.00
2018-08-13T11:10:18.391Z,23.80
2018-08-13T11:12:46.449Z,23.50
2018-08-13T11:15:18.163Z,24.30
2018-08-13T11:17:46.572Z,24.80
2018-08-13T11:20:14.858Z,24.50
2018-08-13T11:22:43.533Z,24.80
2018-08-13T11:25:13.828Z,24.70
2018-08-13T11:27:41.999Z,24.50
2018-08-13T11:30:16.231Z,24.30
2018-08-13T11:32:44.353Z,24.10
2018-08-13T11:35:13.961Z,24.60
2018-08-13T11:37:42.134Z,24.90
2018-08-13T11:40:13.756Z,24.90
2018-08-13T11:42:41.917Z,24.50
2018-08-13T11:45:10.168Z,24.80
2018-08-13T11:47:38.932Z,24.80
2018-08-13T11:50:16.114Z,24.90
2018-08-13T11:52:45.749Z,25.00
2018-08-13T11:55:13.895Z,25.20
2018-08-13T11:57:42.016Z,25.00
2018-08-13T12:00:11.420Z,24.90
2018-08-13T12:02:39.532Z,24.70
2018-08-13T12:05:09.740Z,24.70
2018-08-13T12:07:37.877Z,24.50
2018-08-13T12:10:06.928Z,24.50
2018-08-13T12:12:35.173Z,24.40
2018-08-13T12:15:03.674Z,24.90
2018-08-13T12:17:31.827Z,24.90
2018-08-13T12:20:00.143Z,24.90
2018-08-13T12:22:28.291Z,24.50
2018-08-13T12:24:56.482Z,24.40
2018-08-13T12:27:24.579Z,23.90
2018-08-13T12:29:52.773Z,23.90
2018-08-13T12:32:20.935Z,23.80
2018-08-13T12:34:49.037Z,23.90
2018-08-13T12:37:17.184Z,23.80
2018-08-13T12:39:45.282Z,23.60
2018-08-13T12:42:13.429Z,24.00
2018-08-13T12:44:41.541Z,24.30
2018-08-13T12:47:09.646Z,24.10
2018-08-13T12:49:37.785Z,24.00
2018-08-13T12:52:06.228Z,23.90
2018-08-13T12:54:34.833Z,24.10
2018-08-13T12:57:03.032Z,24.00
2018-08-13T12:59:31.201Z,23.90
2018-08-13T13:01:59.382Z,24.00
2018-08-13T13:04:27.569Z,23.70
2018-08-13T13:06:55.655Z,23.40
2018-08-13T13:09:23.783Z,23.40
2018-08-13T13:11:51.909Z,23.30
2018-08-13T13:14:20.025Z,23.50
2018-08-13T13:16:48.167Z,23.60
2018-08-13T13:19:16.256Z,23.60
2018-08-13T13:21:44.357Z,23.70
2018-08-13T13:24:12.502Z,23.40
2018-08-13T13:26:40.610Z,23.20
2018-08-13T13:29:08.737Z,23.10
2018-08-13T13:31:36.832Z,23.10
2018-08-13T13:34:05.008Z,23.00
2018-08-13T13:36:33.217Z,23.20
2018-08-13T13:39:01.365Z,23.40
2018-08-13T13:41:29.563Z,23.20
2018-08-13T13:43:57.718Z,23.10
2018-08-13T13:46:25.836Z,23.10
2018-08-13T13:48:53.957Z,23.20
2018-08-13T13:51:22.045Z,23.40
2018-08-13T13:53:50.173Z,23.40
2018-08-13T13:56:18.325Z,23.50
2018-08-13T13:58:46.424Z,23.50
2018-08-13T14:01:14.544Z,23.70
2018-08-13T14:03:42.672Z,23.60
2018-08-13T14:06:10.782Z,23.60
2018-08-13T14:08:38.895Z,23.60
2018-08-13T14:11:07.029Z,23.70
2018-08-13T14:13:35.164Z,23.60
2018-08-13T14:16:03.340Z,23.50
2018-08-13T14:18:31.632Z,23.50
2018-08-13T14:20:59.816Z,23.50
2018-08-13T14:23:27.997Z,23.50
2018-08-13T14:25:56.148Z,23.40
2018-08-13T14:28:24.232Z,23.40
2018-08-13T14:30:52.318Z,23.30
2018-08-13T14:33:20.429Z,23.30
2018-08-13T14:35:48.531Z,23.30
2018-08-13T14:38:16.599Z,23.20
2018-08-13T14:40:44.683Z,23.20
2018-08-13T14:43:12.785Z,23.10
2018-08-13T14:45:40.929Z,23.00
2018-08-13T14:48:09.084Z,23.10
2018-08-13T14:50:37.161Z,23.10
2018-08-13T14:53:05.340Z,23.20
2018-08-13T14:55:33.482Z,23.30
2018-08-13T14:58:01.703Z,23.40
2018-08-13T15:00:39.409Z,23.40
2018-08-13T15:03:10.621Z,23.30
2018-08-13T15:05:39.025Z,23.10
2018-08-13T15:08:07.197Z,22.90
2018-08-13T15:10:35.327Z,22.90
2018-08-13T15:13:03.630Z,23.10
2018-08-13T15:15:31.780Z,23.20
2018-08-13T15:17:59.964Z,23.20
2018-08-13T15:20:29.362Z,23.20
2018-08-13T15:22:57.596Z,22.90
2018-08-13T15:25:25.910Z,22.70
2018-08-13T15:27:54.027Z,22.70
2018-08-13T15:30:22.989Z,22.70
2018-08-13T15:32:51.949Z,22.70
2018-08-13T15:35:20.068Z,22.80
2018-08-13T15:37:48.575Z,23.00
2018-08-13T15:40:16.696Z,23.20
2018-08-13T15:42:44.836Z,23.10
2018-08-13T15:45:15.232Z,23.10
2018-08-13T15:47:43.361Z,23.10
2018-08-13T15:50:13.112Z,23.20
2018-08-13T15:52:41.237Z,23.40
2018-08-13T15:55:09.332Z,23.30
2018-08-13T15:57:37.463Z,23.20
2018-08-13T16:00:06.988Z,23.20
2018-08-13T16:02:35.342Z,23.10
2018-08-13T16:05:03.933Z,23.20
2018-08-13T16:07:32.099Z,23.20
2018-08-13T16:10:00.331Z,23.30
2018-08-13T16:12:28.609Z,23.20
2018-08-13T16:14:56.728Z,23.20
2018-08-13T16:17:24.872Z,23.10
2018-08-13T16:19:52.969Z,23.10
2018-08-13T16:22:21.069Z,23.10
2018-08-13T16:24:49.172Z,23.10
2018-08-13T16:27:17.276Z,23.10
2018-08-13T16:29:45.360Z,23.10
2018-08-13T16:32:13.470Z,23.00
2018-08-13T16:34:41.577Z,23.00
2018-08-13T16:37:09.718Z,23.00
2018-08-13T16:39:37.832Z,22.90
2018-08-13T16:42:05.950Z,22.90
2018-08-13T16:44:34.076Z,22.90
2018-08-13T16:47:02.268Z,22.90
2018-08-13T16:49:30.439Z,22.90
2018-08-13T16:51:58.589Z,22.80
2018-08-13T16:54:26.708Z,22.80
2018-08-13T16:56:54.826Z,22.80
2018-08-13T16:59:22.952Z,22.80
2018-08-13T17:01:51.097Z,22.80
2018-08-13T17:04:19.238Z,22.80
2018-08-13T17:06:47.373Z,22.80
2018-08-13T17:09:15.538Z,22.80
2018-08-13T17:11:43.658Z,22.80
2018-08-13T17:14:13.810Z,22.80
2018-08-13T17:16:43.691Z,22.80
2018-08-13T17:19:11.836Z,22.80
2018-08-13T17:21:40.453Z,22.80
2018-08-13T17:24:10.899Z,22.80
2018-08-13T17:26:39.035Z,22.80
2018-08-13T17:29:07.288Z,22.80
2018-08-13T17:31:35.824Z,22.70
2018-08-13T17:34:04.095Z,22.70
2018-08-13T17:36:32.285Z,22.70
2018-08-13T17:39:00.606Z,22.60
2018-08-13T17:41:28.729Z,22.50
2018-08-13T17:43:56.917Z,22.50
2018-08-13T17:46:25.053Z,22.50
2018-08-13T17:48:53.132Z,22.40
2018-08-13T17:51:21.225Z,22.30
2018-08-13T17:53:49.321Z,22.30
2018-08-13T17:56:17.493Z,22.10
2018-08-13T17:58:45.561Z,22.00
2018-08-13T18:01:13.665Z,21.90
2018-08-13T18:03:41.788Z,21.90
2018-08-13T18:06:09.965Z,21.90
2018-08-13T18:08:38.084Z,21.80
2018-08-13T18:11:06.205Z,21.70
2018-08-13T18:13:34.322Z,21.60
2018-08-13T18:16:02.536Z,21.60
2018-08-13T18:18:30.712Z,21.50
2018-08-13T18:20:58.922Z,21.60
2018-08-13T18:23:27.550Z,21.60
2018-08-13T18:25:55.723Z,21.70
2018-08-13T18:28:23.805Z,21.50
2018-08-13T18:30:51.904Z,21.60
2018-08-13T18:33:20.002Z,21.60
2018-08-13T18:35:48.089Z,21.50
2018-08-13T18:38:16.212Z,21.50
2018-08-13T18:40:44.309Z,21.40
2018-08-13T18:43:12.392Z,21.40
2018-08-13T18:45:40.532Z,21.50
2018-08-13T18:48:08.657Z,21.60
2018-08-13T18:50:36.769Z,21.50
2018-08-13T18:53:04.920Z,21.50
2018-08-13T18:55:33.052Z,21.40
2018-08-13T18:58:01.301Z,21.40
2018-08-13T19:00:30.657Z,21.40
2018-08-13T19:03:00.831Z,21.40
2018-08-13T19:05:29.205Z,21.30
2018-08-13T19:07:57.422Z,21.20
2018-08-13T19:10:25.526Z,21.20
2018-08-13T19:12:53.716Z,21.20
2018-08-13T19:15:26.038Z,21.30
2018-08-13T19:17:54.353Z,21.30
2018-08-13T19:20:22.655Z,21.20
2018-08-13T19:22:51.068Z,21.20
2018-08-13T19:25:25.916Z,21.20
2018-08-13T19:27:54.102Z,21.10
2018-08-13T19:30:23.116Z,21.10
2018-08-13T19:32:51.721Z,21.20
2018-08-13T19:35:19.872Z,21.30
2018-08-13T19:37:48.451Z,21.20
2018-08-13T19:40:18.732Z,21.20
2018-08-13T19:42:47.652Z,21.20
2018-08-13T19:45:16.749Z,21.20
2018-08-13T19:47:45.238Z,21.30
2018-08-13T19:50:13.654Z,21.20
2018-08-13T19:52:43.038Z,21.20
2018-08-13T19:55:11.504Z,21.20
2018-08-13T19:57:39.977Z,21.30
2018-08-13T20:00:16.295Z,21.40
2018-08-13T20:02:44.705Z,21.30
2018-08-13T20:05:12.813Z,21.20
2018-08-13T20:07:40.964Z,21.10
2018-08-13T20:10:10.994Z,21.00
2018-08-13T20:12:39.116Z,21.10
2018-08-13T20:15:07.381Z,21.10
2018-08-13T20:17:35.623Z,21.10
2018-08-13T20:20:04.433Z,20.90
2018-08-13T20:22:32.588Z,20.80
2018-08-13T20:25:00.716Z,20.80
2018-08-13T20:27:28.892Z,20.80
2018-08-13T20:29:57.018Z,20.90
2018-08-13T20:32:25.207Z,20.90
2018-08-13T20:34:53.300Z,20.90
2018-08-13T20:37:21.465Z,20.90
2018-08-13T20:39:49.530Z,20.80
2018-08-13T20:42:17.675Z,20.70
2018-08-13T20:44:45.780Z,20.70
2018-08-13T20:47:13.868Z,20.70
2018-08-13T20:49:41.973Z,20.60
2018-08-13T20:52:10.063Z,20.70
2018-08-13T20:54:38.217Z,20.80
2018-08-13T20:57:06.394Z,20.70
2018-08-13T20:59:34.616Z,20.60
2018-08-13T21:02:02.842Z,20.60
2018-08-13T21:04:30.983Z,20.70
2018-08-13T21:06:59.260Z,20.60
2018-08-13T21:09:27.673Z,20.70
2018-08-13T21:11:56.001Z,20.60
2018-08-13T21:14:24.159Z,20.50
2018-08-13T21:16:52.849Z,20.70
2018-08-13T21:19:20.929Z,20.70
2018-08-13T21:21:49.438Z,20.70
2018-08-13T21:24:17.553Z,20.60
2018-08-13T21:26:45.667Z,20.70
2018-08-13T21:29:13.797Z,20.60
2018-08-13T21:31:41.990Z,20.60
2018-08-13T21:34:10.166Z,20.60
2018-08-13T21:36:38.365Z,20.50
2018-08-13T21:39:08.688Z,20.40
2018-08-13T21:41:36.906Z,20.40
2018-08-13T21:44:05.355Z,20.40
2018-08-13T21:46:33.541Z,20.50
2018-08-13T21:49:01.706Z,20.60
2018-08-13T21:51:29.975Z,20.40
2018-08-13T21:53:58.245Z,20.30
2018-08-13T21:56:26.428Z,20.20
2018-08-13T21:58:54.509Z,20.20
2018-08-13T22:01:28.186Z,20.20
2018-08-13T22:03:56.565Z,20.30
2018-08-13T22:06:24.810Z,20.30
2018-08-13T22:08:53.848Z,20.30
2018-08-13T22:11:22.719Z,20.30
2018-08-13T22:13:50.889Z,20.40
2018-08-13T22:16:18.976Z,20.20
2018-08-13T22:18:47.113Z,20.20
2018-08-13T22:21:15.242Z,20.20
2018-08-13T22:23:54.776Z,20.20
2018-08-13T22:26:22.891Z,20.20
2018-08-13T22:28:50.984Z,20.30
2018-08-13T22:31:19.089Z,20.30
2018-08-13T22:33:47.204Z,20.20
2018-08-13T22:36:15.360Z,20.30
2018-08-13T22:38:43.453Z,20.20
2018-08-13T22:41:11.573Z,20.00
2018-08-13T22:43:39.704Z,20.20
2018-08-13T22:46:07.819Z,19.90
2018-08-13T22:48:35.916Z,19.90
2018-08-13T22:51:04.050Z,19.80
2018-08-13T22:53:32.181Z,20.00
2018-08-13T22:56:00.314Z,19.90
2018-08-13T22:58:28.471Z,20.00
2018-08-13T23:00:56.684Z,20.10
2018-08-13T23:03:24.732Z,20.10
2018-08-13T23:05:52.845Z,20.10
2018-08-13T23:08:21.042Z,20.00
2018-08-13T23:10:49.252Z,19.90
2018-08-13T23:13:18.345Z,20.00
2018-08-13T23:15:46.612Z,19.90
2018-08-13T23:18:14.748Z,20.00
2018-08-13T23:20:42.857Z,19.90
2018-08-13T23:23:11.033Z,20.00
2018-08-13T23:25:39.172Z,20.00
2018-08-13T23:28:10.809Z,19.90
2018-08-13T23:30:38.959Z,19.90
2018-08-13T23:33:07.788Z,19.90
2018-08-13T23:35:35.880Z,20.10
2018-08-13T23:38:04.021Z,20.10
2018-08-13T23:40:32.127Z,20.10
2018-08-13T23:43:00.289Z,20.10
2018-08-13T23:45:30.005Z,19.80
2018-08-13T23:47:58.137Z,19.80
2018-08-13T23:50:26.994Z,19.90
2018-08-13T23:52:56.665Z,19.90
2018-08-13T23:55:27.441Z,20.00
2018-08-13T23:57:55.999Z,20.00
